createdAt,value
2022-11-29T00:01:26.068Z,98478.78
2022-11-29T00:03:53.630Z,98484.34
2022-11-29T00:06:25.642Z,98471.41
2022-11-29T00:08:52.135Z,98477.16
2022-11-29T00:11:40.585Z,98474.56
2022-11-29T00:14:08.682Z,98471.38
2022-11-29T00:16:35.280Z,98471.41
2022-11-29T00:19:02.517Z,98463.81
2022-11-29T00:21:29.894Z,98465.22
2022-11-29T00:23:56.317Z,98469.81
2022-11-29T00:26:23.060Z,98465.03
2022-11-29T00:28:49.974Z,98462.03
2022-11-29T00:31:21.670Z,98463.44
2022-11-29T00:33:50.119Z,98462.63
2022-11-29T00:36:17.296Z,98465.59
2022-11-29T00:38:44.452Z,98466.81
2022-11-29T00:41:11.918Z,98467.81
2022-11-29T00:43:38.812Z,98463.81
2022-11-29T00:46:05.972Z,98463.22
2022-11-29T00:48:32.633Z,98460.63
2022-11-29T00:50:59.120Z,98466.19
2022-11-29T00:53:25.662Z,98469.00
2022-11-29T00:55:53.114Z,98462.00
2022-11-29T00:58:20.881Z,98464.63
2022-11-29T01:00:47.778Z,98460.81
2022-11-29T01:03:15.408Z,98454.25
2022-11-29T01:05:42.948Z,98459.63
2022-11-29T01:08:10.790Z,98456.63
2022-11-29T01:10:37.350Z,98453.66
2022-11-29T01:13:04.293Z,98454.25
2022-11-29T01:15:31.139Z,98456.25
2022-11-29T01:17:57.652Z,98451.47
2022-11-29T01:20:24.307Z,98451.88
2022-11-29T01:22:51.135Z,98445.28
2022-11-29T01:25:19.363Z,98454.84
2022-11-29T01:27:46.168Z,98457.03
2022-11-29T01:30:13.007Z,98455.06
2022-11-29T01:32:39.546Z,98449.88
2022-11-29T01:35:06.815Z,98453.28
2022-11-29T01:37:33.491Z,98450.66
2022-11-29T01:39:59.879Z,98457.44
2022-11-29T01:42:26.351Z,98448.69
2022-11-29T01:45:24.156Z,98451.47
2022-11-29T01:47:54.803Z,98448.47
2022-11-29T01:50:21.627Z,98454.81
2022-11-29T01:52:48.961Z,98457.03
2022-11-29T01:55:16.007Z,98457.63
2022-11-29T01:57:43.608Z,98455.25
2022-11-29T02:00:13.710Z,98454.44
2022-11-29T02:02:45.302Z,98455.03
2022-11-29T02:05:15.037Z,98450.84
2022-11-29T02:07:45.802Z,98453.28
2022-11-29T02:10:13.798Z,98453.28
2022-11-29T02:12:43.125Z,98454.63
2022-11-29T02:15:32.913Z,98453.66
2022-11-29T02:18:14.578Z,98444.91
2022-11-29T02:20:53.331Z,98448.28
2022-11-29T02:23:44.416Z,98451.06
2022-11-29T02:26:16.807Z,98448.28
2022-11-29T02:29:18.945Z,98453.25
2022-11-29T02:31:58.802Z,98453.81
2022-11-29T02:34:59.036Z,98452.03
2022-11-29T02:37:55.457Z,98456.03
2022-11-29T02:41:05.026Z,98448.88
2022-11-29T02:43:34.463Z,98451.69
2022-11-29T02:46:27.746Z,98455.66
2022-11-29T02:49:22.341Z,98454.84
2022-11-29T02:52:19.416Z,98453.47
2022-11-29T02:55:26.727Z,98447.47
2022-11-29T02:58:25.190Z,98452.47
2022-11-29T03:01:02.854Z,98455.47
2022-11-29T03:03:48.076Z,98454.66
2022-11-29T03:06:30.859Z,98461.44
2022-11-29T03:09:22.816Z,98463.41
2022-11-29T03:12:29.306Z,98470.00
2022-11-29T03:15:03.323Z,98476.38
2022-11-29T03:17:40.585Z,98467.78
2022-11-29T03:20:25.780Z,98480.53
2022-11-29T03:23:05.422Z,98472.38
2022-11-29T03:25:41.047Z,98474.38
2022-11-29T03:28:16.199Z,98477.19
2022-11-29T03:30:51.207Z,98476.00
2022-11-29T03:34:00.731Z,98479.16
2022-11-29T03:36:51.094Z,98476.41
2022-11-29T03:39:22.203Z,98474.00
2022-11-29T03:41:55.552Z,98485.38
2022-11-29T03:44:27.705Z,98486.78
2022-11-29T03:47:08.377Z,98489.94
2022-11-29T03:49:48.750Z,98493.31
2022-11-29T03:52:29.167Z,98484.13
2022-11-29T03:55:14.224Z,98484.94
2022-11-29T03:57:51.345Z,98486.13
2022-11-29T04:00:18.846Z,98488.13
2022-11-29T04:02:54.449Z,98490.53
2022-11-29T04:05:31.278Z,98490.75
2022-11-29T04:08:15.750Z,98487.38
2022-11-29T04:11:08.230Z,98488.53
2022-11-29T04:14:01.461Z,98480.97
2022-11-29T04:17:15.976Z,98482.97
2022-11-29T04:20:04.308Z,98487.56
2022-11-29T04:22:33.607Z,98489.31
2022-11-29T04:25:22.278Z,98488.72
2022-11-29T04:28:10.585Z,98483.53
2022-11-29T04:30:52.178Z,98487.72
2022-11-29T04:33:53.198Z,98493.50
2022-11-29T04:36:47.095Z,98494.09
2022-11-29T04:39:41.715Z,98503.25
2022-11-29T04:42:25.107Z,98499.66
2022-11-29T04:45:06.674Z,98499.06
2022-11-29T04:47:50.149Z,98500.06
2022-11-29T04:50:35.870Z,98509.66
2022-11-29T04:53:05.161Z,98507.03
2022-11-29T04:55:53.689Z,98512.63
2022-11-29T04:58:46.396Z,98510.97
2022-11-29T05:01:50.032Z,98513.16
2022-11-29T05:04:23.126Z,98513.19
2022-11-29T05:07:06.151Z,98513.81
2022-11-29T05:09:41.768Z,98514.22
2022-11-29T05:12:20.909Z,98515.59
2022-11-29T05:15:16.511Z,98516.78
2022-11-29T05:18:15.440Z,98526.31
2022-11-29T05:21:27.775Z,98523.91
2022-11-29T05:24:09.302Z,98534.91
2022-11-29T05:27:01.204Z,98530.34
2022-11-29T05:29:56.766Z,98538.47
2022-11-29T05:32:32.676Z,98531.09
2022-11-29T05:35:25.709Z,98531.28
2022-11-29T05:37:56.866Z,98535.88
2022-11-29T05:40:52.397Z,98540.50
2022-11-29T05:43:56.562Z,98540.13
2022-11-29T05:46:50.713Z,98542.34
2022-11-29T05:49:38.353Z,98539.56
2022-11-29T05:52:24.356Z,98545.16
2022-11-29T05:55:21.856Z,98549.16
2022-11-29T05:58:00.737Z,98549.56
2022-11-29T06:00:39.834Z,98546.34
2022-11-29T06:03:56.901Z,98549.53
2022-11-29T06:06:30.613Z,98550.88
2022-11-29T06:09:06.590Z,98552.88
2022-11-29T06:11:50.588Z,98553.91
2022-11-29T06:14:36.292Z,98557.69
2022-11-29T06:17:19.546Z,98554.94
2022-11-29T06:20:23.484Z,98559.91
2022-11-29T06:23:17.549Z,98566.88
2022-11-29T06:26:11.670Z,98565.91
2022-11-29T06:28:57.935Z,98574.47
2022-11-29T06:31:31.316Z,98570.06
2022-11-29T06:34:10.393Z,98577.84
2022-11-29T06:36:46.919Z,98575.88
2022-11-29T06:39:14.160Z,98582.25
2022-11-29T06:41:41.209Z,98572.84
2022-11-29T06:44:09.924Z,98581.78
2022-11-29T06:46:45.438Z,98585.34
2022-11-29T06:49:17.418Z,98580.56
2022-11-29T06:51:51.266Z,98587.72
2022-11-29T06:54:34.114Z,98588.75
2022-11-29T06:57:35.351Z,98592.75
2022-11-29T07:00:04.794Z,98598.34
2022-11-29T07:02:40.407Z,98592.75
2022-11-29T07:05:19.155Z,98597.53
2022-11-29T07:07:47.127Z,98606.69
2022-11-29T07:10:17.087Z,98602.72
2022-11-29T07:12:45.375Z,98605.84
2022-11-29T07:15:22.603Z,98605.84
2022-11-29T07:18:01.262Z,98608.84
2022-11-29T07:20:42.440Z,98616.47
2022-11-29T07:23:38.400Z,98614.69
2022-11-29T07:26:22.063Z,98613.50
2022-11-29T07:28:54.735Z,98617.25
2022-11-29T07:31:54.426Z,98613.34
2022-11-29T07:34:57.951Z,98616.50
2022-11-29T07:37:37.097Z,98625.31
2022-11-29T07:40:16.556Z,98617.97
2022-11-29T07:43:07.102Z,98614.38
2022-11-29T07:45:38.103Z,98625.34
2022-11-29T07:48:04.970Z,98625.72
2022-11-29T07:50:32.094Z,98631.84
2022-11-29T07:52:59.615Z,98629.50
2022-11-29T07:55:27.542Z,98622.97
2022-11-29T07:57:54.235Z,98627.56
2022-11-29T08:00:21.624Z,98626.94
2022-11-29T08:02:50.172Z,98632.94
2022-11-29T08:05:17.903Z,98634.75
2022-11-29T08:07:44.491Z,98630.91
2022-11-29T08:10:14.190Z,98638.84
2022-11-29T08:12:50.260Z,98644.38
2022-11-29T08:15:21.823Z,98640.00
2022-11-29T08:17:49.036Z,98647.03
2022-11-29T08:20:16.846Z,98648.81
2022-11-29T08:22:45.367Z,98646.88
2022-11-29T08:25:12.471Z,98643.09
2022-11-29T08:27:39.413Z,98645.50
2022-11-29T08:30:07.158Z,98650.47
2022-11-29T08:32:34.698Z,98652.44
2022-11-29T08:35:01.233Z,98657.03
2022-11-29T08:37:27.886Z,98661.38
2022-11-29T08:39:55.525Z,98656.63
2022-11-29T08:42:22.388Z,98661.38
2022-11-29T08:44:49.008Z,98659.22
2022-11-29T08:47:34.265Z,98663.03
2022-11-29T08:50:03.718Z,98663.00
2022-11-29T08:52:58.598Z,98665.38
2022-11-29T08:55:27.728Z,98667.59
2022-11-29T08:57:59.997Z,98673.19
2022-11-29T09:00:58.893Z,98666.59
2022-11-29T09:03:44.061Z,98671.78
2022-11-29T09:06:16.508Z,98676.22
2022-11-29T09:08:44.318Z,98675.84
2022-11-29T09:11:13.972Z,98677.63
2022-11-29T09:13:43.318Z,98681.81
2022-11-29T09:16:12.218Z,98681.22
2022-11-29T09:18:40.259Z,98685.03
2022-11-29T09:21:13.997Z,98692.78
2022-11-29T09:23:46.499Z,98688.22
2022-11-29T09:26:18.467Z,98682.06
2022-11-29T09:28:45.782Z,98684.88
2022-11-29T09:31:15.524Z,98689.41
2022-11-29T09:33:42.744Z,98685.63
2022-11-29T09:36:11.031Z,98691.41
2022-11-29T09:38:38.574Z,98688.31
2022-11-29T09:41:20.281Z,98688.50
2022-11-29T09:44:08.225Z,98686.72
2022-11-29T09:46:47.682Z,98691.91
2022-11-29T09:49:48.954Z,98684.91
2022-11-29T09:52:53.537Z,98689.47
2022-11-29T09:56:05.662Z,98696.28
2022-11-29T09:58:40.689Z,98696.91
2022-11-29T10:01:13.678Z,98696.09
2022-11-29T10:03:45.137Z,98700.88
2022-11-29T10:06:24.010Z,98697.66
2022-11-29T10:09:06.998Z,98704.63
2022-11-29T10:11:38.525Z,98699.03
2022-11-29T10:14:17.923Z,98700.41
2022-11-29T10:17:16.630Z,98708.59
2022-11-29T10:19:49.391Z,98704.78
2022-11-29T10:22:20.232Z,98700.81
2022-11-29T10:24:52.136Z,98703.41
2022-11-29T10:27:23.151Z,98700.41
2022-11-29T10:29:53.286Z,98704.06
2022-11-29T10:32:21.365Z,98698.28
2022-11-29T10:34:49.932Z,98695.47
2022-11-29T10:37:19.140Z,98699.44
2022-11-29T10:39:53.088Z,98699.22
2022-11-29T10:42:41.466Z,98704.59
2022-11-29T10:45:15.721Z,98693.84
2022-11-29T10:47:45.337Z,98697.22
2022-11-29T10:50:23.741Z,98692.63
2022-11-29T10:52:51.500Z,98703.97
2022-11-29T10:55:22.189Z,98695.41
2022-11-29T10:58:12.281Z,98697.41
2022-11-29T11:00:59.693Z,98708.41
2022-11-29T11:03:29.600Z,98701.81
2022-11-29T11:06:04.151Z,98700.25
2022-11-29T11:08:32.973Z,98700.03
2022-11-29T11:11:02.400Z,98706.81
2022-11-29T11:13:32.457Z,98708.88
2022-11-29T11:16:16.860Z,98700.91
2022-11-29T11:18:45.332Z,98710.66
2022-11-29T11:21:17.962Z,98705.88
2022-11-29T11:24:02.649Z,98704.28
2022-11-29T11:26:42.625Z,98707.28
2022-11-29T11:29:18.762Z,98705.50
2022-11-29T11:31:53.266Z,98714.06
2022-11-29T11:34:38.389Z,98712.09
2022-11-29T11:37:32.290Z,98716.66
2022-11-29T11:40:19.953Z,98716.06
2022-11-29T11:42:46.988Z,98711.47
2022-11-29T11:45:13.368Z,98715.28
2022-11-29T11:47:49.786Z,98719.25
2022-11-29T11:50:25.011Z,98718.88
2022-11-29T11:52:55.568Z,98718.06
2022-11-29T11:55:22.108Z,98716.66
2022-11-29T11:58:12.981Z,98723.03
2022-11-29T12:03:28.821Z,98727.44
2022-11-29T12:06:18.236Z,98718.22
2022-11-29T12:08:47.617Z,98722.06
2022-11-29T12:11:17.971Z,98724.66
2022-11-29T12:13:50.739Z,98719.84
2022-11-29T12:16:28.305Z,98718.47
2022-11-29T12:19:02.975Z,98726.25
2022-11-29T12:21:37.496Z,98724.47
2022-11-29T12:24:53.263Z,98725.84
2022-11-29T12:27:19.885Z,98733.00
2022-11-29T12:29:46.416Z,98726.84
2022-11-29T12:32:25.457Z,98732.63
2022-11-29T12:35:04.110Z,98731.84
2022-11-29T12:37:51.846Z,98738.41
2022-11-29T12:40:24.325Z,98739.63
2022-11-29T12:43:00.342Z,98731.44
2022-11-29T12:46:05.340Z,98737.03
2022-11-29T12:48:45.886Z,98738.03
2022-11-29T12:51:30.380Z,98738.84
2022-11-29T12:54:05.631Z,98738.63
2022-11-29T12:57:02.974Z,98742.44
2022-11-29T12:59:42.001Z,98739.22
2022-11-29T13:02:36.416Z,98745.03
2022-11-29T13:05:30.988Z,98745.63
2022-11-29T13:08:16.033Z,98746.81
2022-11-29T13:11:12.372Z,98750.22
2022-11-29T13:13:42.844Z,98753.41
2022-11-29T13:16:32.280Z,98745.63
2022-11-29T13:19:07.860Z,98752.59
2022-11-29T13:21:50.558Z,98757.19
2022-11-29T13:24:43.194Z,98754.63
2022-11-29T13:27:27.523Z,98754.22
2022-11-29T13:29:56.139Z,98761.81
2022-11-29T13:32:53.579Z,98757.00
2022-11-29T13:35:27.589Z,98761.19
2022-11-29T13:38:23.627Z,98763.19
2022-11-29T13:41:08.296Z,98760.81
2022-11-29T13:43:53.262Z,98764.75
2022-11-29T13:46:33.472Z,98764.56
2022-11-29T13:48:59.992Z,98764.97
2022-11-29T13:51:26.543Z,98764.97
2022-11-29T13:53:54.993Z,98759.78
2022-11-29T13:56:49.356Z,98765.78
2022-11-29T13:59:27.539Z,98766.19
2022-11-29T14:01:54.762Z,98771.59
2022-11-29T14:04:33.071Z,98773.38
2022-11-29T14:07:15.375Z,98775.78
2022-11-29T14:09:51.047Z,98773.38
2022-11-29T14:12:48.375Z,98773.19
2022-11-29T14:15:21.385Z,98783.56
2022-11-29T14:17:56.778Z,98778.97
2022-11-29T14:20:23.214Z,98774.19
2022-11-29T14:23:04.995Z,98776.16
2022-11-29T14:25:53.451Z,98777.38
2022-11-29T14:28:22.809Z,98777.97
2022-11-29T14:30:51.649Z,98783.53
2022-11-29T14:33:24.116Z,98782.16
2022-11-29T14:36:00.264Z,98786.16
2022-11-29T14:38:57.859Z,98782.16
2022-11-29T14:41:45.791Z,98789.53
2022-11-29T14:44:24.207Z,98791.94
2022-11-29T14:47:22.894Z,98787.75
2022-11-29T14:49:51.215Z,98789.34
2022-11-29T14:52:23.822Z,98793.75
2022-11-29T14:55:04.196Z,98792.34
2022-11-29T14:58:05.879Z,98799.13
2022-11-29T15:00:51.957Z,98801.53
2022-11-29T15:03:21.286Z,98802.31
2022-11-29T15:05:57.229Z,98806.31
2022-11-29T15:08:26.725Z,98812.31
2022-11-29T15:11:02.178Z,98811.31
2022-11-29T15:13:36.000Z,98808.28
2022-11-29T15:16:17.855Z,98810.72
2022-11-29T15:18:59.208Z,98813.13
2022-11-29T15:21:39.470Z,98814.28
2022-11-29T15:24:17.092Z,98817.91
2022-11-29T15:27:00.907Z,98818.69
2022-11-29T15:29:29.876Z,98813.72
2022-11-29T15:32:04.501Z,98823.88
2022-11-29T15:34:42.395Z,98819.88
2022-11-29T15:37:22.071Z,98823.69
2022-11-29T15:39:59.630Z,98824.69
2022-11-29T15:42:31.324Z,98822.06
2022-11-29T15:44:59.025Z,98822.47
2022-11-29T15:47:26.732Z,98836.44
2022-11-29T15:49:54.278Z,98834.06
2022-11-29T15:52:34.518Z,98838.06
2022-11-29T15:55:04.836Z,98836.66
2022-11-29T15:57:43.935Z,98831.47
2022-11-29T16:00:24.000Z,98837.03
2022-11-29T16:03:00.055Z,98834.84
2022-11-29T16:05:35.568Z,98836.44
2022-11-29T16:08:10.487Z,98845.81
2022-11-29T16:10:47.476Z,98853.41
2022-11-29T16:13:40.320Z,98848.22
2022-11-29T16:16:20.128Z,98850.59
2022-11-29T16:18:48.592Z,98853.41
2022-11-29T16:21:29.059Z,98854.00
2022-11-29T16:23:57.485Z,98858.59
2022-11-29T16:26:30.251Z,98863.19
2022-11-29T16:28:59.689Z,98861.00
2022-11-29T16:31:35.388Z,98858.00
2022-11-29T16:34:15.092Z,98863.38
2022-11-29T16:36:41.683Z,98862.00
2022-11-29T16:39:24.360Z,98869.78
2022-11-29T16:42:12.518Z,98865.00
2022-11-29T16:44:45.544Z,98871.94
2022-11-29T16:47:12.484Z,98862.19
2022-11-29T16:49:39.055Z,98867.56
2022-11-29T16:52:27.136Z,98874.94
2022-11-29T16:54:53.748Z,98873.94
2022-11-29T16:57:20.647Z,98865.94
2022-11-29T16:59:47.310Z,98876.72
2022-11-29T17:02:14.973Z,98875.91
2022-11-29T17:04:42.469Z,98873.72
2022-11-29T17:07:22.436Z,98883.50
2022-11-29T17:09:49.112Z,98875.16
2022-11-29T17:12:15.676Z,98873.16
2022-11-29T17:14:42.585Z,98878.81
2022-11-29T17:17:14.948Z,98876.41
2022-11-29T17:19:41.547Z,98875.59
2022-11-29T17:22:08.132Z,98881.78
2022-11-29T17:24:34.587Z,98882.75
2022-11-29T17:27:01.158Z,98887.75
2022-11-29T17:29:27.717Z,98883.56
2022-11-29T17:31:54.204Z,98883.53
2022-11-29T17:34:20.749Z,98889.28
2022-11-29T17:36:47.352Z,98895.88
2022-11-29T17:39:15.680Z,98897.72
2022-11-29T17:41:42.525Z,98898.97
2022-11-29T17:44:09.490Z,98903.94
2022-11-29T17:46:37.070Z,98904.72
2022-11-29T17:49:06.731Z,98909.13
2022-11-29T17:51:52.346Z,98905.31
2022-11-29T17:54:19.737Z,98899.09
2022-11-29T17:56:46.292Z,98903.53
2022-11-29T17:59:12.830Z,98909.16
2022-11-29T18:01:39.587Z,98905.97
2022-11-29T18:04:06.687Z,98903.16
2022-11-29T18:06:39.002Z,98898.31
2022-11-29T18:09:07.737Z,98906.41
2022-11-29T18:11:46.352Z,98911.16
2022-11-29T18:14:15.835Z,98910.34
2022-11-29T18:16:44.883Z,98915.56
2022-11-29T18:19:16.906Z,98919.22
2022-11-29T18:21:43.696Z,98926.47
2022-11-29T18:24:10.488Z,98930.91
2022-11-29T18:26:38.637Z,98917.13
2022-11-29T18:29:06.844Z,98923.31
2022-11-29T18:31:36.148Z,98928.09
2022-11-29T18:34:11.611Z,98915.97
2022-11-29T18:36:42.999Z,98918.13
2022-11-29T18:39:14.046Z,98924.34
2022-11-29T18:41:42.637Z,98927.44
2022-11-29T18:44:13.746Z,98937.09
2022-11-29T18:46:41.524Z,98934.47
2022-11-29T18:49:09.790Z,98941.13
2022-11-29T18:51:41.782Z,98939.69
2022-11-29T18:54:11.730Z,98938.47
2022-11-29T18:56:39.581Z,98933.06
2022-11-29T18:59:10.411Z,98932.06
2022-11-29T19:01:41.012Z,98934.28
2022-11-29T19:04:14.049Z,98935.63
2022-11-29T19:06:44.618Z,98935.41
2022-11-29T19:09:16.386Z,98945.22
2022-11-29T19:11:43.316Z,98945.03
2022-11-29T19:14:11.813Z,98945.03
2022-11-29T19:16:43.056Z,98947.22
2022-11-29T19:19:09.677Z,98942.81
2022-11-29T19:21:36.520Z,98944.22
2022-11-29T19:24:05.606Z,98945.44
2022-11-29T19:26:33.534Z,98944.25
2022-11-29T19:29:01.441Z,98942.22
2022-11-29T19:31:28.968Z,98943.72
2022-11-29T19:33:56.493Z,98947.34
2022-11-29T19:36:24.538Z,98950.19
2022-11-29T19:38:54.209Z,98948.63
2022-11-29T19:41:26.901Z,98953.00
2022-11-29T19:43:55.449Z,98955.03
2022-11-29T19:46:24.616Z,98948.72
2022-11-29T19:48:55.685Z,98956.75
2022-11-29T19:51:23.265Z,98958.19
2022-11-29T19:53:55.958Z,98957.16
2022-11-29T19:56:23.052Z,98954.56
2022-11-29T19:58:50.387Z,98953.13
2022-11-29T20:01:19.916Z,98954.50
2022-11-29T20:03:46.490Z,98958.06
2022-11-29T20:06:15.731Z,98948.22
2022-11-29T20:08:42.998Z,98961.56
2022-11-29T20:11:21.142Z,98959.75
2022-11-29T20:13:56.115Z,98960.00
2022-11-29T20:16:22.913Z,98960.16
2022-11-29T20:18:51.395Z,98955.53
2022-11-29T20:21:21.356Z,98961.28
2022-11-29T20:23:47.999Z,98970.25
2022-11-29T20:26:20.203Z,98971.06
2022-11-29T20:28:47.619Z,98966.84
2022-11-29T20:31:16.836Z,98961.50
2022-11-29T20:33:44.824Z,98964.44
2022-11-29T20:36:41.825Z,98963.44
2022-11-29T20:39:35.339Z,98960.22
2022-11-29T20:42:23.870Z,98964.19
2022-11-29T20:45:06.382Z,98962.63
2022-11-29T20:47:42.666Z,98962.88
2022-11-29T20:50:20.516Z,98959.88
2022-11-29T20:52:56.167Z,98965.63
2022-11-29T20:55:23.660Z,98973.66
2022-11-29T20:57:50.325Z,98977.22
2022-11-29T21:00:19.746Z,98979.00
2022-11-29T21:02:46.432Z,98982.66
2022-11-29T21:05:13.170Z,98981.47
2022-11-29T21:07:39.951Z,98981.66
2022-11-29T21:10:07.171Z,98978.28
2022-11-29T21:12:34.104Z,98976.25
2022-11-29T21:15:01.249Z,98980.41
2022-11-29T21:17:33.342Z,98978.63
2022-11-29T21:20:00.966Z,98983.22
2022-11-29T21:22:39.688Z,98984.03
2022-11-29T21:25:19.994Z,98987.63
2022-11-29T21:27:46.873Z,98995.84
2022-11-29T21:30:19.318Z,98998.63
2022-11-29T21:32:46.242Z,99004.44
2022-11-29T21:35:13.436Z,98999.28
2022-11-29T21:37:40.917Z,98998.97
2022-11-29T21:40:08.116Z,99001.38
2022-11-29T21:42:34.695Z,99003.97
2022-11-29T21:45:01.114Z,99009.63
2022-11-29T21:47:27.623Z,99007.25
2022-11-29T21:50:00.406Z,99005.88
2022-11-29T21:52:27.010Z,99009.59
2022-11-29T21:54:53.464Z,99008.97
2022-11-29T21:57:20.074Z,99012.56
2022-11-29T21:59:46.722Z,99020.63
2022-11-29T22:02:13.403Z,99018.84
2022-11-29T22:04:40.111Z,99031.88
2022-11-29T22:07:06.692Z,99026.66
2022-11-29T22:09:33.357Z,99023.59
2022-11-29T22:11:59.989Z,99019.59
2022-11-29T22:14:26.440Z,99021.88
2022-11-29T22:16:55.131Z,99015.03
2022-11-29T22:19:24.087Z,99011.19
2022-11-29T22:21:53.308Z,99020.34
2022-11-29T22:24:22.626Z,99016.03
2022-11-29T22:26:50.286Z,99009.91
2022-11-29T22:29:17.331Z,99017.75
2022-11-29T22:31:45.538Z,99024.16
2022-11-29T22:34:12.244Z,99026.75
2022-11-29T22:36:39.426Z,99023.97
2022-11-29T22:39:07.013Z,99027.94
2022-11-29T22:41:35.394Z,99026.44
2022-11-29T22:44:02.676Z,99028.63
2022-11-29T22:46:29.714Z,99027.88
2022-11-29T22:49:00.265Z,99035.53
2022-11-29T22:51:30.682Z,99034.59
2022-11-29T22:54:00.094Z,99029.34
2022-11-29T22:56:29.568Z,99030.72
2022-11-29T22:58:56.514Z,99032.50
2022-11-29T23:01:25.655Z,99028.75
2022-11-29T23:03:54.755Z,99030.72
2022-11-29T23:06:32.824Z,99024.28
2022-11-29T23:09:07.231Z,99024.72
2022-11-29T23:11:33.787Z,99029.91
2022-11-29T23:14:00.443Z,99026.16
2022-11-29T23:16:29.048Z,99031.38
2022-11-29T23:18:58.233Z,99032.97
2022-11-29T23:21:30.988Z,99026.66
2022-11-29T23:23:59.959Z,99027.22
2022-11-29T23:26:28.975Z,99025.81
2022-11-29T23:28:55.933Z,99021.50
2022-11-29T23:31:23.754Z,99024.81
2022-11-29T23:33:51.213Z,99025.88
2022-11-29T23:36:18.868Z,99024.84
2022-11-29T23:38:45.691Z,99023.47
2022-11-29T23:41:12.702Z,99023.84
2022-11-29T23:43:40.947Z,99017.97
2022-11-29T23:46:18.849Z,99026.34
2022-11-29T23:48:46.117Z,99017.03
2022-11-29T23:51:13.658Z,99012.66
2022-11-29T23:53:41.415Z,99013.63
2022-11-29T23:56:12.531Z,99015.47
2022-11-29T23:58:39.686Z,99014.41
